Terminal Aerodrome Forecast
Issued by NWS

Home | Current Version | Previous Version | Text Only | Print | Product List | Glossary On
Versions: 1 2 3 4 5 6 7 8 9 10 11 12 13 14 15 16 17 18 19 20 21
963
FTUS41 KCAR 280537
TAFPQI
TAF
KPQI 280537Z 2806/2906 17005KT 3SM BR BKN003
     FM280800 23005KT 1SM BR BKN003
     FM281100 31007KT P6SM BKN030
     FM281500 33010G20KT P6SM BKN060
     FM282300 01006KT P6SM BKN250=

USA.gov is the U.S. government's official web portal to all federal, state and local government web resources and services.